Time,TemperatureF,DewpointF,PressureIn,WindDirection,WindDirectionDegrees,WindSpeedMPH,WindSpeedGustMPH,Humidity,HourlyPrecipIn,Conditions,Clouds,dailyrainin,SoftwareType,DateUTC
2013-05-10 06:53:00,54.5,54.2,29.96,SSW,200,0.0,0.0,99,0.00,,,0.00,Wunderground v.1.15,2013-05-10 10:53:00,
2013-05-10 06:54:00,54.5,54.2,29.95,SSW,199,0.0,0.0,99,0.00,,,0.00,Wunderground v.1.15,2013-05-10 10:54:00,
2013-05-10 06:55:00,54.5,54.2,29.96,SSW,199,0.0,0.0,99,0.00,,,0.00,Wunderground v.1.15,2013-05-10 10:55:00,
2013-05-10 07:00:00,54.6,54.3,29.96,SSW,199,0.0,0.0,99,0.00,,,0.00,Wunderground v.1.15,2013-05-10 11:00:00,
2013-05-10 07:02:00,54.7,54.4,29.96,SSW,199,0.0,0.0,99,0.00,,,0.00,Wunderground v.1.15,2013-05-10 11:02:00,
2013-05-10 07:03:00,54.8,54.5,29.96,SSW,200,0.0,0.0,99,0.00,,,0.00,Wunderground v.1.15,2013-05-10 11:03:00,
2013-05-10 07:09:00,54.9,54.6,29.96,SSW,199,0.0,0.0,99,0.00,,,0.00,Wunderground v.1.15,2013-05-10 11:09:00,
2013-05-10 07:15:00,55.1,54.8,29.96,SSW,200,0.0,0.0,99,0.00,,,0.00,Wunderground v.1.15,2013-05-10 11:15:00,
2013-05-10 07:20:00,55.3,55.0,29.96,SSW,200,0.0,0.0,99,0.00,,,0.00,Wunderground v.1.15,2013-05-10 11:20:00,
2013-05-10 07:26:00,55.7,55.4,29.98,NNW,333,1.0,3.0,99,0.00,,,0.00,Wunderground v.1.15,2013-05-10 11:26:00,
2013-05-10 07:32:00,56.3,56.0,29.97,South,190,1.0,2.0,99,0.00,,,0.00,Wunderground v.1.15,2013-05-10 11:32:00,
2013-05-10 07:38:00,56.9,56.6,29.97,NNW,340,1.0,2.0,99,0.00,,,0.00,Wunderground v.1.15,2013-05-10 11:38:00,
2013-05-10 07:43:00,57.4,57.1,29.97,NNW,342,1.0,1.0,99,0.00,,,0.00,Wunderground v.1.15,2013-05-10 11:43:00,
2013-05-10 07:49:00,57.8,57.5,29.97,NNW,342,0.0,1.0,99,0.00,,,0.00,Wunderground v.1.15,2013-05-10 11:49:00,
2013-05-10 07:55:00,58.4,58.1,29.97,NNW,342,0.0,0.0,99,0.00,,,0.00,Wunderground v.1.15,2013-05-10 11:55:00,
2013-05-10 08:01:00,59.0,58.7,29.97,NNW,342,1.0,1.0,99,0.00,,,0.00,Wunderground v.1.15,2013-05-10 12:01:00,
2013-05-10 08:06:00,59.4,59.1,29.97,NNW,342,0.0,3.0,99,0.00,,,0.00,Wunderground v.1.15,2013-05-10 12:06:00,
2013-05-10 08:12:00,59.9,59.6,29.97,NNW,342,0.0,3.0,99,0.00,,,0.00,Wunderground v.1.15,2013-05-10 12:12:00,
2013-05-10 08:18:00,60.2,59.9,29.98,NNW,342,0.0,3.0,99,0.00,,,0.00,Wunderground v.1.15,2013-05-10 12:18:00,
2013-05-10 08:24:00,60.7,60.1,29.98,NNW,342,0.0,3.0,98,0.00,,,0.00,Wunderground v.1.15,2013-05-10 12:24:00,
2013-05-10 08:30:00,61.1,60.5,29.97,NNW,342,0.0,3.0,98,0.00,,,0.00,Wunderground v.1.15,2013-05-10 12:30:00,
2013-05-10 08:35:00,61.3,60.4,29.97,NNW,342,0.0,3.0,97,0.00,,,0.00,Wunderground v.1.15,2013-05-10 12:35:00,
2013-05-10 08:41:00,61.5,60.6,29.97,NNW,342,0.0,3.0,97,0.00,,,0.00,Wunderground v.1.15,2013-05-10 12:41:00,
2013-05-10 08:47:00,61.6,60.7,29.97,NNW,342,0.0,3.0,97,0.00,,,0.00,Wunderground v.1.15,2013-05-10 12:47:00,
2013-05-10 08:53:00,61.7,60.8,29.96,NNW,342,0.0,3.0,97,0.00,,,0.00,Wunderground v.1.15,2013-05-10 12:53:00,
2013-05-10 08:59:00,61.7,60.8,29.96,NNW,342,0.0,3.0,97,0.00,,,0.00,Wunderground v.1.15,2013-05-10 12:59:00,
2013-05-10 09:04:00,61.7,60.8,29.98,NNW,342,0.0,1.0,97,0.00,,,0.00,Wunderground v.1.15,2013-05-10 13:04:00,
2013-05-10 09:09:00,61.7,60.5,29.98,NNW,342,0.0,1.0,96,0.00,,,0.00,Wunderground v.1.15,2013-05-10 13:09:00,
2013-05-10 09:15:00,61.6,60.7,29.98,NNW,342,0.0,1.0,97,0.39,,,0.04,Wunderground v.1.15,2013-05-10 13:15:00,
2013-05-10 09:21:00,61.4,60.5,29.98,NNW,342,0.0,1.0,97,0.15,,,0.05,Wunderground v.1.15,2013-05-10 13:21:00,
2013-05-10 09:27:00,61.4,60.5,29.97,NNW,342,0.0,1.0,97,0.06,,,0.05,Wunderground v.1.15,2013-05-10 13:27:00,
2013-05-10 09:32:00,61.3,60.4,29.97,NNW,342,1.0,1.0,97,0.04,,,0.05,Wunderground v.1.15,2013-05-10 13:32:00,
2013-05-10 09:38:00,61.2,60.3,29.98,SSW,194,1.0,3.0,97,0.00,,,0.05,Wunderground v.1.15,2013-05-10 13:38:00,
2013-05-10 09:43:00,61.0,60.1,29.97,SE,137,2.0,4.0,97,0.29,,,0.07,Wunderground v.1.15,2013-05-10 13:43:00,
2013-05-10 09:49:00,60.8,59.9,29.97,SE,141,2.0,4.0,97,0.29,,,0.09,Wunderground v.1.15,2013-05-10 13:49:00,
2013-05-10 09:55:00,60.6,59.7,29.97,SE,141,0.0,2.0,97,0.08,,,0.09,Wunderground v.1.15,2013-05-10 13:55:00,
2013-05-10 10:00:00,60.7,60.1,29.97,SE,142,0.0,0.0,98,0.05,,,0.09,Wunderground v.1.15,2013-05-10 14:00:00,
2013-05-10 10:06:00,60.7,60.1,29.97,SE,138,1.0,8.0,98,0.00,,,0.09,Wunderground v.1.15,2013-05-10 14:06:00,
2013-05-10 10:11:00,61.0,60.4,29.97,SSE,153,3.0,8.0,98,0.00,,,0.09,Wunderground v.1.15,2013-05-10 14:11:00,
2013-05-10 10:17:00,61.4,60.8,29.97,ESE,115,2.0,8.0,98,0.00,,,0.09,Wunderground v.1.15,2013-05-10 14:17:00,
2013-05-10 10:23:00,62.0,61.4,29.96,SE,128,3.0,8.0,98,0.00,,,0.09,Wunderground v.1.15,2013-05-10 14:23:00,
2013-05-10 10:29:00,62.6,61.7,29.96,SE,140,3.0,8.0,97,0.00,,,0.09,Wunderground v.1.15,2013-05-10 14:29:00,
2013-05-10 10:35:00,63.2,62.0,29.95,SSE,159,3.0,8.0,96,0.00,,,0.09,Wunderground v.1.15,2013-05-10 14:35:00,
2013-05-10 10:41:00,63.6,62.1,29.95,South,182,3.0,8.0,95,0.00,,,0.09,Wunderground v.1.15,2013-05-10 14:41:00,
2013-05-10 10:46:00,64.1,62.6,29.95,South,184,3.0,8.0,95,0.00,,,0.09,Wunderground v.1.15,2013-05-10 14:46:00,
2013-05-10 10:51:00,64.6,62.5,29.95,South,170,3.0,8.0,93,0.00,,,0.09,Wunderground v.1.15,2013-05-10 14:51:00,
2013-05-10 10:57:00,64.6,62.2,29.95,SE,128,5.0,9.0,92,0.00,,,0.09,Wunderground v.1.15,2013-05-10 14:57:00,
2013-05-10 11:03:00,65.1,62.7,29.95,ESE,119,6.0,12.0,92,0.00,,,0.09,Wunderground v.1.15,2013-05-10 15:03:00,
2013-05-10 11:09:00,65.4,62.4,29.95,SE,136,7.0,12.0,90,0.00,,,0.09,Wunderground v.1.15,2013-05-10 15:09:00,
2013-05-10 11:15:00,65.8,62.8,29.95,SE,146,6.0,12.0,90,0.00,,,0.09,Wunderground v.1.15,2013-05-10 15:15:00,
2013-05-10 11:20:00,66.1,63.1,29.94,East,98,7.0,7.0,90,0.00,,,0.09,Wunderground v.1.15,2013-05-10 15:20:00,
2013-05-10 11:26:00,66.8,63.1,29.94,SE,144,5.0,12.0,88,0.00,,,0.09,Wunderground v.1.15,2013-05-10 15:26:00,
2013-05-10 11:32:00,67.4,63.4,29.94,SSW,203,3.0,12.0,87,0.00,,,0.09,Wunderground v.1.15,2013-05-10 15:32:00,
2013-05-10 11:37:00,67.7,63.7,29.94,SE,146,5.0,12.0,87,0.00,,,0.09,Wunderground v.1.15,2013-05-10 15:37:00,
2013-05-10 11:43:00,68.0,64.0,29.93,SE,134,5.0,12.0,87,0.00,,,0.09,Wunderground v.1.15,2013-05-10 15:43:00,
2013-05-10 11:49:00,68.6,63.9,29.94,SE,146,5.0,12.0,85,0.00,,,0.09,Wunderground v.1.15,2013-05-10 15:49:00,
2013-05-10 11:54:00,68.9,64.2,29.93,SE,130,5.0,12.0,85,0.00,,,0.09,Wunderground v.1.15,2013-05-10 15:54:00,
2013-05-10 12:00:00,69.3,64.3,29.93,ESE,113,6.0,6.0,84,0.00,,,0.09,Wunderground v.1.15,2013-05-10 16:00:00,
2013-05-10 12:06:00,69.9,64.8,29.93,SE,129,5.0,14.0,84,0.00,,,0.09,Wunderground v.1.15,2013-05-10 16:06:00,
2013-05-10 12:11:00,70.6,65.2,29.93,ESE,123,4.0,7.0,83,0.00,,,0.09,Wunderground v.1.15,2013-05-10 16:11:00,
2013-05-10 12:17:00,70.9,64.8,29.92,SSE,156,6.0,14.0,81,0.00,,,0.09,Wunderground v.1.15,2013-05-10 16:17:00,
2013-05-10 12:23:00,71.3,65.5,29.92,SSE,164,6.0,14.0,82,0.00,,,0.09,Wunderground v.1.15,2013-05-10 16:23:00,
2013-05-10 12:29:00,71.7,66.3,29.92,SE,145,4.0,14.0,83,0.00,,,0.09,Wunderground v.1.15,2013-05-10 16:29:00,
2013-05-10 12:35:00,72.1,65.6,29.92,SE,133,3.0,14.0,80,0.00,,,0.09,Wunderground v.1.15,2013-05-10 16:35:00,
2013-05-10 12:41:00,72.3,65.8,29.92,SW,217,4.0,14.0,80,0.00,,,0.09,Wunderground v.1.15,2013-05-10 16:41:00,
2013-05-10 12:46:00,72.5,65.6,29.92,South,187,3.0,14.0,79,0.00,,,0.09,Wunderground v.1.15,2013-05-10 16:46:00,
2013-05-10 12:52:00,72.4,64.8,29.91,South,171,3.0,14.0,77,0.00,,,0.09,Wunderground v.1.15,2013-05-10 16:52:00,
2013-05-10 12:58:00,72.7,66.2,29.91,SSW,195,2.0,14.0,80,0.00,,,0.09,Wunderground v.1.15,2013-05-10 16:58:00,
2013-05-10 13:03:00,73.0,65.7,29.91,NW,317,2.0,14.0,78,0.00,,,0.09,Wunderground v.1.15,2013-05-10 17:03:00,
2013-05-10 13:08:00,73.3,66.0,29.91,ESE,106,2.0,14.0,78,0.00,,,0.09,Wunderground v.1.15,2013-05-10 17:08:00,
2013-05-10 13:14:00,74.3,66.2,29.91,SE,134,2.0,14.0,76,0.00,,,0.09,Wunderground v.1.15,2013-05-10 17:14:00,
2013-05-10 13:20:00,74.8,66.3,29.90,East,98,1.0,14.0,75,0.00,,,0.09,Wunderground v.1.15,2013-05-10 17:20:00,
2013-05-10 13:26:00,75.0,66.1,29.90,South,174,2.0,14.0,74,0.00,,,0.09,Wunderground v.1.15,2013-05-10 17:26:00,
2013-05-10 13:31:00,75.1,66.2,29.90,SE,145,4.0,14.0,74,0.00,,,0.09,Wunderground v.1.15,2013-05-10 17:31:00,
2013-05-10 13:37:00,75.3,65.6,29.89,ENE,67,5.0,14.0,72,0.00,,,0.09,Wunderground v.1.15,2013-05-10 17:37:00,
2013-05-10 13:43:00,75.2,65.6,29.89,SSW,196,4.0,14.0,72,0.00,,,0.09,Wunderground v.1.15,2013-05-10 17:43:00,
2013-05-10 13:49:00,75.3,65.2,29.89,ENE,78,4.0,14.0,71,0.00,,,0.09,Wunderground v.1.15,2013-05-10 17:49:00,
2013-05-10 13:55:00,76.0,65.5,29.88,South,174,3.0,14.0,70,0.00,,,0.09,Wunderground v.1.15,2013-05-10 17:55:00,
2013-05-10 14:00:00,75.9,64.2,29.88,SSW,195,3.0,3.0,67,0.00,,,0.09,Wunderground v.1.15,2013-05-10 18:00:00,
2013-05-10 14:06:00,75.8,65.7,29.88,ESE,105,3.0,17.0,71,0.00,,,0.09,Wunderground v.1.15,2013-05-10 18:06:00,
2013-05-10 14:12:00,75.6,64.3,29.88,ESE,115,1.0,17.0,68,0.00,,,0.09,Wunderground v.1.15,2013-05-10 18:12:00,
2013-05-10 14:17:00,75.5,64.2,29.87,South,172,2.0,17.0,68,0.00,,,0.09,Wunderground v.1.15,2013-05-10 18:17:00,
2013-05-10 14:23:00,75.7,66.0,29.87,SSE,150,2.0,17.0,72,0.00,,,0.10,Wunderground v.1.15,2013-05-10 18:23:00,
2013-05-10 14:29:00,75.8,65.3,29.87,SSE,148,4.0,17.0,70,0.00,,,0.10,Wunderground v.1.15,2013-05-10 18:29:00,
2013-05-10 14:34:00,75.8,64.5,29.87,ESE,105,4.0,17.0,68,0.00,,,0.10,Wunderground v.1.15,2013-05-10 18:34:00,
2013-05-10 14:40:00,76.2,64.9,29.86,East,89,3.0,3.0,68,0.00,,,0.10,Wunderground v.1.15,2013-05-10 18:40:00,
2013-05-10 14:45:00,76.1,65.2,29.86,SSE,157,3.0,17.0,69,0.00,,,0.10,Wunderground v.1.15,2013-05-10 18:45:00,
2013-05-10 14:51:00,75.8,64.5,29.86,SSE,148,4.0,17.0,68,0.00,,,0.10,Wunderground v.1.15,2013-05-10 18:51:00,
2013-05-10 14:57:00,75.8,64.5,29.85,SSE,160,2.0,17.0,68,0.00,,,0.10,Wunderground v.1.15,2013-05-10 18:57:00,
2013-05-10 15:02:00,75.6,64.7,29.85,SSE,158,2.0,15.0,69,0.00,,,0.10,Wunderground v.1.15,2013-05-10 19:02:00,
2013-05-10 15:07:00,73.1,63.5,29.89,SE,142,8.0,29.0,72,7.02,,,0.27,Wunderground v.1.15,2013-05-10 19:07:00,
2013-05-10 15:13:00,67.6,61.2,29.86,SE,132,12.0,15.0,80,0.21,,,0.40,Wunderground v.1.15,2013-05-10 19:13:00,
2013-05-10 15:43:00,63.9,63.3,29.86,SE,132,0.0,15.0,98,0.00,,,0.40,Wunderground v.1.15,2013-05-10 19:43:00,
2013-05-10 15:48:00,64.4,63.8,29.86,SE,132,0.0,15.0,98,0.00,,,0.40,Wunderground v.1.15,2013-05-10 19:48:00,
2013-05-10 15:54:00,64.9,64.3,29.85,SE,132,0.0,15.0,98,0.00,,,0.40,Wunderground v.1.15,2013-05-10 19:54:00,
2013-05-10 15:59:00,65.0,64.1,29.85,SE,132,0.0,15.0,97,0.00,,,0.40,Wunderground v.1.15,2013-05-10 19:59:00,
2013-05-10 16:04:00,65.3,64.7,29.85,SE,132,0.0,0.0,98,0.00,,,0.40,Wunderground v.1.15,2013-05-10 20:04:00,
2013-05-10 16:10:00,65.3,64.7,29.85,SE,132,0.0,0.0,98,0.00,,,0.40,Wunderground v.1.15,2013-05-10 20:10:00,
2013-05-10 16:16:00,65.2,64.6,29.85,SE,132,0.0,0.0,98,0.00,,,0.40,Wunderground v.1.15,2013-05-10 20:16:00,
2013-05-10 16:22:00,65.5,64.9,29.85,SE,132,0.0,0.0,98,0.00,,,0.40,Wunderground v.1.15,2013-05-10 20:22:00,
2013-05-10 16:28:00,65.8,65.2,29.86,SE,132,0.0,0.0,98,0.00,,,0.40,Wunderground v.1.15,2013-05-10 20:28:00,
2013-05-10 16:34:00,65.8,65.2,29.86,SE,132,0.0,0.0,98,0.00,,,0.40,Wunderground v.1.15,2013-05-10 20:34:00,
2013-05-10 16:40:00,65.6,65.0,29.86,SSE,149,1.0,4.0,98,0.00,,,0.40,Wunderground v.1.15,2013-05-10 20:40:00,
2013-05-10 16:46:00,65.9,64.7,29.86,SSE,157,2.0,4.0,96,0.00,,,0.40,Wunderground v.1.15,2013-05-10 20:46:00,
2013-05-10 16:51:00,66.1,64.3,29.86,SE,145,2.0,2.0,94,0.00,,,0.41,Wunderground v.1.15,2013-05-10 20:51:00,
2013-05-10 16:57:00,66.0,63.9,29.86,SE,144,1.0,2.0,93,0.00,,,0.41,Wunderground v.1.15,2013-05-10 20:57:00,
2013-05-10 17:03:00,65.6,63.8,29.86,SE,144,1.0,8.0,94,0.00,,,0.41,Wunderground v.1.15,2013-05-10 21:03:00,
2013-05-10 17:09:00,65.1,63.6,29.90,NW,325,1.0,8.0,95,0.04,,,0.42,Wunderground v.1.15,2013-05-10 21:09:00,
2013-05-10 17:14:00,64.2,61.5,29.91,ENE,57,4.0,13.0,91,0.65,,,0.47,Wunderground v.1.15,2013-05-10 21:14:00,
2013-05-10 17:20:00,63.2,60.5,29.91,South,186,6.0,8.0,91,0.19,,,0.49,Wunderground v.1.15,2013-05-10 21:20:00,
2013-05-10 17:26:00,62.5,60.1,29.91,East,99,6.0,16.0,92,0.42,,,0.52,Wunderground v.1.15,2013-05-10 21:26:00,
2013-05-10 17:32:00,62.0,60.0,29.90,ENE,75,5.0,8.0,93,0.35,,,0.55,Wunderground v.1.15,2013-05-10 21:32:00,
2013-05-10 17:37:00,61.6,59.6,29.90,SE,146,3.0,10.0,93,0.15,,,0.56,Wunderground v.1.15,2013-05-10 21:37:00,
2013-05-10 17:43:00,61.2,59.5,29.90,ESE,111,3.0,8.0,94,0.18,,,0.58,Wunderground v.1.15,2013-05-10 21:43:00,
2013-05-10 17:49:00,60.9,59.5,29.89,SE,134,2.0,8.0,95,0.19,,,0.60,Wunderground v.1.15,2013-05-10 21:49:00,
2013-05-10 17:55:00,60.8,59.4,29.89,WNW,299,2.0,8.0,95,0.08,,,0.60,Wunderground v.1.15,2013-05-10 21:55:00,
2013-05-10 17:58:00,60.8,59.4,29.89,East,91,2.0,8.0,95,0.06,,,0.60,Wunderground v.1.15,2013-05-10 21:58:00,
2013-05-10 18:01:00,60.8,59.4,29.89,SSE,154,2.0,4.0,95,0.05,,,0.60,Wunderground v.1.15,2013-05-10 22:01:00,
2013-05-10 18:02:00,60.9,59.8,29.89,SSE,159,2.0,10.0,96,0.04,,,0.60,Wunderground v.1.15,2013-05-10 22:02:00,
2013-05-10 18:04:00,60.9,59.8,29.89,SSE,159,2.0,10.0,96,0.04,,,0.60,Wunderground v.1.15,2013-05-10 22:04:00,
2013-05-10 18:05:00,60.9,59.8,29.89,SSE,157,2.0,10.0,96,0.00,,,0.60,Wunderground v.1.15,2013-05-10 22:05:00,
2013-05-10 18:11:00,61.0,59.9,29.89,SE,140,2.0,10.0,96,0.00,,,0.60,Wunderground v.1.15,2013-05-10 22:11:00,
2013-05-10 18:17:00,61.1,60.0,29.88,SSE,155,2.0,10.0,96,0.00,,,0.61,Wunderground v.1.15,2013-05-10 22:17:00,
2013-05-10 18:23:00,61.2,60.3,29.88,SSE,157,1.0,10.0,97,0.00,,,0.61,Wunderground v.1.15,2013-05-10 22:23:00,
2013-05-10 18:29:00,61.4,60.5,29.88,SE,130,2.0,10.0,97,0.00,,,0.61,Wunderground v.1.15,2013-05-10 22:29:00,
2013-05-10 18:34:00,61.6,60.7,29.88,SE,131,2.0,10.0,97,0.00,,,0.61,Wunderground v.1.15,2013-05-10 22:34:00,
2013-05-10 18:40:00,61.7,60.8,29.87,SE,138,1.0,10.0,97,0.00,,,0.61,Wunderground v.1.15,2013-05-10 22:40:00,
2013-05-10 18:46:00,61.7,60.8,29.87,South,179,2.0,10.0,97,0.00,,,0.61,Wunderground v.1.15,2013-05-10 22:46:00,
2013-05-10 18:51:00,61.7,60.8,29.87,SSE,163,2.0,10.0,97,0.00,,,0.61,Wunderground v.1.15,2013-05-10 22:51:00,
2013-05-10 18:57:00,61.7,60.8,29.86,SSE,163,1.0,10.0,97,0.00,,,0.61,Wunderground v.1.15,2013-05-10 22:57:00,
2013-05-10 19:02:00,61.7,60.8,29.86,ESE,117,1.0,4.0,97,0.00,,,0.61,Wunderground v.1.15,2013-05-10 23:02:00,
2013-05-10 19:08:00,61.6,60.7,29.86,SE,146,2.0,7.0,97,0.00,,,0.61,Wunderground v.1.15,2013-05-10 23:08:00,
2013-05-10 19:14:00,61.5,60.6,29.85,SE,136,2.0,7.0,97,0.00,,,0.61,Wunderground v.1.15,2013-05-10 23:14:00,
2013-05-10 19:20:00,61.4,60.5,29.86,SSE,155,3.0,3.0,97,0.00,,,0.61,Wunderground v.1.15,2013-05-10 23:20:00,
2013-05-10 19:25:00,61.4,60.5,29.86,SE,138,2.0,7.0,97,0.00,,,0.61,Wunderground v.1.15,2013-05-10 23:25:00,
2013-05-10 19:31:00,61.3,60.4,29.86,SE,145,2.0,7.0,97,0.00,,,0.61,Wunderground v.1.15,2013-05-10 23:31:00,
2013-05-10 19:37:00,61.3,60.4,29.86,SE,126,2.0,7.0,97,0.00,,,0.61,Wunderground v.1.15,2013-05-10 23:37:00,
2013-05-10 19:42:00,61.3,60.4,29.86,SSE,155,3.0,7.0,97,0.00,,,0.61,Wunderground v.1.15,2013-05-10 23:42:00,
2013-05-10 19:48:00,61.2,60.3,29.86,SE,137,4.0,7.0,97,0.00,,,0.61,Wunderground v.1.15,2013-05-10 23:48:00,
2013-05-10 19:54:00,61.2,60.3,29.86,ESE,115,2.0,7.0,97,0.00,,,0.61,Wunderground v.1.15,2013-05-10 23:54:00,
2013-05-10 19:59:00,61.1,60.2,29.86,SSE,152,2.0,7.0,97,0.00,,,0.61,Wunderground v.1.15,2013-05-10 23:59:00,
2013-05-10 20:04:00,61.1,60.2,29.85,SE,146,3.0,8.0,97,0.00,,,0.61,Wunderground v.1.15,2013-05-11 00:04:00,
2013-05-10 20:10:00,61.1,60.2,29.85,ESE,121,2.0,8.0,97,0.00,,,0.61,Wunderground v.1.15,2013-05-11 00:10:00,
2013-05-10 20:15:00,61.1,60.2,29.85,SE,132,2.0,8.0,97,0.00,,,0.61,Wunderground v.1.15,2013-05-11 00:15:00,
2013-05-10 20:21:00,61.0,60.1,29.85,SE,129,2.0,8.0,97,0.00,,,0.61,Wunderground v.1.15,2013-05-11 00:21:00,
2013-05-10 20:26:00,61.0,60.1,29.85,SE,140,2.0,8.0,97,0.00,,,0.61,Wunderground v.1.15,2013-05-11 00:26:00,
2013-05-10 20:32:00,60.9,60.0,29.84,SE,142,2.0,8.0,97,0.00,,,0.62,Wunderground v.1.15,2013-05-11 00:32:00,
2013-05-10 20:38:00,60.9,60.0,29.84,SE,138,2.0,8.0,97,0.00,,,0.62,Wunderground v.1.15,2013-05-11 00:38:00,
2013-05-10 20:44:00,60.8,59.9,29.84,SSE,165,2.0,8.0,97,0.00,,,0.62,Wunderground v.1.15,2013-05-11 00:44:00,
2013-05-10 20:50:00,60.7,59.8,29.84,SE,132,3.0,3.0,97,0.00,,,0.62,Wunderground v.1.15,2013-05-11 00:50:00,
2013-05-10 20:56:00,60.7,59.8,29.84,SE,133,2.0,8.0,97,0.00,,,0.62,Wunderground v.1.15,2013-05-11 00:56:00,
2013-05-10 21:01:00,60.7,60.1,29.84,ESE,119,2.0,8.0,98,0.00,,,0.62,Wunderground v.1.15,2013-05-11 01:01:00,
2013-05-10 21:06:00,60.6,60.0,29.84,South,170,2.0,8.0,98,0.00,,,0.62,Wunderground v.1.15,2013-05-11 01:06:00,
2013-05-10 21:12:00,60.6,60.0,29.84,SSE,153,1.0,8.0,98,0.00,,,0.62,Wunderground v.1.15,2013-05-11 01:12:00,
2013-05-10 21:18:00,60.5,59.9,29.84,East,96,1.0,8.0,98,0.00,,,0.62,Wunderground v.1.15,2013-05-11 01:18:00,
2013-05-10 21:23:00,60.5,59.9,29.84,South,171,1.0,8.0,98,0.00,,,0.62,Wunderground v.1.15,2013-05-11 01:23:00,
2013-05-10 21:29:00,60.5,59.9,29.84,SE,129,2.0,8.0,98,0.00,,,0.63,Wunderground v.1.15,2013-05-11 01:29:00,
2013-05-10 21:35:00,60.5,59.9,29.84,SE,139,3.0,8.0,98,0.00,,,0.63,Wunderground v.1.15,2013-05-11 01:35:00,
2013-05-10 21:41:00,60.5,59.9,29.84,SE,142,3.0,8.0,98,0.06,,,0.64,Wunderground v.1.15,2013-05-11 01:41:00,
2013-05-10 21:46:00,60.5,59.9,29.84,SSW,198,3.0,8.0,98,0.06,,,0.64,Wunderground v.1.15,2013-05-11 01:46:00,
2013-05-10 21:52:00,60.5,59.9,29.84,SSE,161,2.0,8.0,98,0.04,,,0.64,Wunderground v.1.15,2013-05-11 01:52:00,
2013-05-10 21:58:00,60.5,59.9,29.84,SSE,161,2.0,8.0,98,0.04,,,0.65,Wunderground v.1.15,2013-05-11 01:58:00,
2013-05-10 22:04:00,60.5,59.9,29.84,SSE,148,1.0,8.0,98,0.04,,,0.65,Wunderground v.1.15,2013-05-11 02:04:00,
2013-05-10 22:10:00,60.5,59.9,29.84,SE,137,1.0,8.0,98,0.05,,,0.66,Wunderground v.1.15,2013-05-11 02:10:00,
2013-05-10 22:16:00,60.4,59.8,29.84,SE,134,2.0,8.0,98,0.05,,,0.66,Wunderground v.1.15,2013-05-11 02:16:00,
2013-05-10 22:21:00,60.4,59.8,29.84,SE,136,2.0,8.0,98,0.04,,,0.66,Wunderground v.1.15,2013-05-11 02:21:00,
2013-05-10 22:27:00,60.4,59.8,29.84,SE,138,2.0,8.0,98,0.00,,,0.67,Wunderground v.1.15,2013-05-11 02:27:00,
2013-05-10 22:33:00,60.3,59.7,29.84,South,179,2.0,8.0,98,0.00,,,0.67,Wunderground v.1.15,2013-05-11 02:33:00,
2013-05-10 22:39:00,60.3,59.7,29.84,SE,129,2.0,8.0,98,0.05,,,0.68,Wunderground v.1.15,2013-05-11 02:39:00,
2013-05-10 22:45:00,60.3,59.7,29.83,SE,128,2.0,8.0,98,0.07,,,0.69,Wunderground v.1.15,2013-05-11 02:45:00,
2013-05-10 22:51:00,60.3,59.7,29.83,SE,129,2.0,8.0,98,0.10,,,0.70,Wunderground v.1.15,2013-05-11 02:51:00,
2013-05-10 22:57:00,60.3,60.0,29.83,SSE,149,1.0,8.0,99,0.37,,,0.72,Wunderground v.1.15,2013-05-11 02:57:00,
2013-05-10 23:02:00,60.2,59.9,29.83,South,184,2.0,7.0,99,0.27,,,0.74,Wunderground v.1.15,2013-05-11 03:02:00,
2013-05-10 23:08:00,60.2,59.9,29.82,SE,144,3.0,7.0,99,0.07,,,0.74,Wunderground v.1.15,2013-05-11 03:08:00,
2013-05-10 23:13:00,60.2,59.9,29.82,SE,136,3.0,7.0,99,0.04,,,0.74,Wunderground v.1.15,2013-05-11 03:13:00,
2013-05-10 23:19:00,60.1,59.8,29.82,SSE,165,2.0,7.0,99,0.00,,,0.74,Wunderground v.1.15,2013-05-11 03:19:00,
2013-05-10 23:25:00,60.1,59.8,29.81,SSE,165,2.0,7.0,99,0.00,,,0.74,Wunderground v.1.15,2013-05-11 03:25:00,
2013-05-10 23:31:00,60.1,59.8,29.81,SE,126,1.0,7.0,99,0.00,,,0.74,Wunderground v.1.15,2013-05-11 03:31:00,
2013-05-10 23:37:00,60.1,59.8,29.82,SE,137,2.0,7.0,99,0.00,,,0.74,Wunderground v.1.15,2013-05-11 03:37:00,
2013-05-10 23:43:00,60.1,59.8,29.81,SE,137,2.0,7.0,99,0.00,,,0.74,Wunderground v.1.15,2013-05-11 03:43:00,
2013-05-10 23:49:00,60.1,59.8,29.82,SE,137,1.0,7.0,99,0.00,,,0.74,Wunderground v.1.15,2013-05-11 03:49:00,
2013-05-10 23:56:00,60.1,59.8,29.81,SE,137,1.0,8.0,99,0.00,,,0.74,Wunderground v.1.15,2013-05-11 03:56:00,